Time;durP1;ratioP1;P1;durP2;ratioP2;P2;SDS_P1;SDS_P2;PMS_P1;PMS_P2;Temp;Humidity;BMP_temperature;BMP_pressure;BME280_temperature;BME280_humidity;BME280_pressure;Samples;Min_cycle;Max_cycle;Signal;HPM_P1;HPM_P2
2023/07/01 00:01:45;;;;;;;4.55;3.80;;;;;;;12.09;100.00;100209.66;4917650;29;20044;-81
2023/07/01 00:04:12;;;;;;;6.20;3.70;;;;;;;12.10;100.00;100205.22;4915896;29;20055;-80
2023/07/01 00:06:42;;;;;;;4.13;3.45;;;;;;;12.07;100.00;100200.91;4910167;29;20036;-82
2023/07/01 00:09:10;;;;;;;3.40;2.85;;;;;;;12.04;100.00;100216.03;4901765;29;20131;-80
2023/07/01 00:11:37;;;;;;;5.82;3.55;;;;;;;12.03;100.00;100212.53;4889294;29;20041;-79
2023/07/01 00:14:04;;;;;;;6.28;3.50;;;;;;;12.03;100.00;100195.78;4884791;29;20642;-81
2023/07/01 00:16:31;;;;;;;5.38;3.35;;;;;;;11.99;100.00;100196.78;4912902;29;20131;-80
2023/07/01 00:18:57;;;;;;;4.90;3.40;;;;;;;11.94;100.00;100196.06;4896863;29;20056;-81
2023/07/01 00:21:24;;;;;;;4.10;3.30;;;;;;;11.98;100.00;100195.06;4897917;29;20048;-81
2023/07/01 00:23:51;;;;;;;5.57;3.45;;;;;;;11.97;100.00;100196.84;4916079;29;20451;-82
2023/07/01 00:26:18;;;;;;;4.65;3.20;;;;;;;11.94;100.00;100193.41;4892298;29;20079;-81
2023/07/01 00:28:45;;;;;;;4.05;3.53;;;;;;;11.93;100.00;100192.53;4905171;29;20127;-81
2023/07/01 00:31:11;;;;;;;4.78;3.30;;;;;;;11.92;100.00;100188.16;4916659;29;20072;-81
2023/07/01 00:33:38;;;;;;;3.85;3.10;;;;;;;11.89;100.00;100188.28;4924864;29;20563;-82
2023/07/01 00:36:05;;;;;;;4.03;3.00;;;;;;;11.88;100.00;100188.34;4936433;29;20051;-82
2023/07/01 00:38:32;;;;;;;4.40;3.10;;;;;;;11.84;100.00;100182.25;4904362;29;20064;-82
2023/07/01 00:40:58;;;;;;;5.80;3.40;;;;;;;11.81;100.00;100175.31;4919064;29;20067;-82
2023/07/01 00:43:25;;;;;;;4.93;3.40;;;;;;;11.81;100.00;100179.72;4904336;29;20084;-81
2023/07/01 00:45:52;;;;;;;4.13;3.13;;;;;;;11.81;100.00;100183.25;4904066;29;20411;-83
2023/07/01 00:48:24;;;;;;;4.93;3.45;;;;;;;11.85;100.00;100178.69;4899657;29;20059;-81
2023/07/01 00:50:52;;;;;;;5.72;3.55;;;;;;;11.92;100.00;100182.00;4922515;29;20036;-83
2023/07/01 00:53:19;;;;;;;4.95;3.45;;;;;;;11.94;100.00;100189.00;4917568;29;20068;-81
2023/07/01 00:55:46;;;;;;;5.55;3.40;;;;;;;11.96;100.00;100183.66;4920793;29;20044;-81
2023/07/01 00:58:14;;;;;;;4.10;3.40;;;;;;;11.95;100.00;100187.22;4905671;29;20112;-81
2023/07/01 01:00:41;;;;;;;3.80;3.30;;;;;;;11.89;100.00;100182.13;4927604;29;20058;-80
2023/07/01 01:03:21;;;;;;;3.95;3.00;;;;;;;11.80;100.00;100180.66;4914849;29;20112;-80
2023/07/01 01:05:53;;;;;;;7.38;3.58;;;;;;;11.77;100.00;100178.06;4897281;29;20040;-83
2023/07/01 01:08:46;;;;;;;5.90;3.13;;;;;;;11.80;100.00;100178.88;4930807;29;20488;-82
2023/07/01 01:11:13;;;;;;;4.50;2.90;;;;;;;11.76;100.00;100165.75;4903719;29;20044;-83
2023/07/01 01:13:42;;;;;;;4.00;3.00;;;;;;;11.72;100.00;100172.06;4917399;29;20079;-83
2023/07/01 01:16:10;;;;;;;8.20;3.80;;;;;;;11.66;100.00;100165.19;4928683;29;20048;-84
2023/07/01 01:18:39;;;;;;;5.00;3.20;;;;;;;11.67;100.00;100155.47;4921956;29;20768;-83
2023/07/01 01:21:06;;;;;;;5.90;3.40;;;;;;;11.63;100.00;100154.72;4907235;29;20048;-83
2023/07/01 01:23:38;;;;;;;3.72;3.35;;;;;;;11.67;100.00;100155.47;4890286;29;20040;-83
2023/07/01 01:26:09;;;;;;;4.38;3.38;;;;;;;11.67;100.00;100153.69;4921362;29;20037;-83
2023/07/01 01:28:36;;;;;;;4.68;3.10;;;;;;;11.64;100.00;100148.50;4904129;29;20115;-83
2023/07/01 01:31:03;;;;;;;6.13;3.40;;;;;;;11.64;100.00;100139.69;4904713;29;20048;-83
2023/07/01 01:33:30;;;;;;;6.63;3.50;;;;;;;11.60;100.00;100146.84;4921414;29;20054;-83
2023/07/01 01:36:02;;;;;;;4.13;3.22;;;;;;;11.50;100.00;100142.78;4902391;29;20036;-84
2023/07/01 01:38:31;;;;;;;5.70;3.53;;;;;;;11.50;100.00;100150.72;4917761;29;20104;-82
2023/07/01 01:41:18;;;;;;;5.85;3.42;;;;;;;11.58;100.00;100138.13;4917492;29;20032;-82
2023/07/01 01:44:08;;;;;;;4.18;3.22;;;;;;;11.56;100.00;100140.81;4933652;29;20127;-82
2023/07/01 01:46:36;;;;;;;7.22;3.80;;;;;;;11.62;100.00;100138.91;4906091;29;20124;-82
2023/07/01 01:49:03;;;;;;;5.82;4.07;;;;;;;11.63;100.00;100133.53;4902459;29;20052;-83
2023/07/01 01:51:31;;;;;;;4.10;3.60;;;;;;;11.63;100.00;100135.34;4900541;29;20067;-82
2023/07/01 01:53:58;;;;;;;5.05;3.13;;;;;;;11.64;100.00;100129.97;4934033;29;20106;-82
2023/07/01 01:56:26;;;;;;;5.93;3.70;;;;;;;11.64;100.00;100129.13;4904455;29;20131;-83
2023/07/01 01:58:53;;;;;;;5.13;3.40;;;;;;;11.68;100.00;100125.44;4910737;29;20036;-80
2023/07/01 02:01:20;;;;;;;4.38;3.58;;;;;;;11.68;100.00;100128.09;4905017;29;20058;-84
2023/07/01 02:03:47;;;;;;;5.55;3.65;;;;;;;11.71;100.00;100123.56;4913103;29;20040;-81
2023/07/01 02:06:13;;;;;;;3.90;2.95;;;;;;;11.72;100.00;100122.66;4880766;29;20642;-81
2023/07/01 02:08:40;;;;;;;4.10;3.20;;;;;;;11.74;100.00;100126.09;4913379;29;20070;-84
2023/07/01 02:11:07;;;;;;;4.10;3.38;;;;;;;11.71;100.00;100128.00;4908206;29;20078;-81
2023/07/01 02:13:34;;;;;;;3.72;3.33;;;;;;;11.64;100.00;100129.13;4894863;29;20044;-82
2023/07/01 02:16:00;;;;;;;5.28;3.35;;;;;;;11.58;100.00;100122.22;4895593;29;20036;-84
2023/07/01 02:18:27;;;;;;;4.03;3.40;;;;;;;11.65;100.00;100118.47;4906102;29;20074;-81
2023/07/01 02:20:54;;;;;;;3.58;3.15;;;;;;;11.62;100.00;100115.94;4895055;29;20046;-81
2023/07/01 02:23:20;;;;;;;4.22;3.20;;;;;;;11.60;100.00;100116.88;4912573;29;20046;-82
2023/07/01 02:25:47;;;;;;;4.28;3.60;;;;;;;11.59;100.00;100107.22;4906213;29;20029;-82
2023/07/01 02:28:14;;;;;;;6.00;3.45;;;;;;;11.67;100.00;100105.19;4925269;29;20055;-82
2023/07/01 02:30:41;;;;;;;4.22;3.35;;;;;;;11.63;100.00;100104.44;4885414;29;20047;-83
2023/07/01 02:33:07;;;;;;;6.38;3.65;;;;;;;11.60;100.00;100104.53;4909914;29;20115;-81
2023/07/01 02:35:34;;;;;;;7.15;3.38;;;;;;;11.61;100.00;100097.47;4879260;29;20064;-82
2023/07/01 02:38:01;;;;;;;4.93;3.17;;;;;;;11.61;100.00;100098.34;4875160;29;20050;-82
2023/07/01 02:40:28;;;;;;;5.32;3.47;;;;;;;11.62;100.00;100094.78;4889509;29;20055;-82
2023/07/01 02:42:54;;;;;;;4.60;2.90;;;;;;;11.60;100.00;100093.94;4895653;29;20622;-81
2023/07/01 02:45:21;;;;;;;4.82;3.55;;;;;;;11.61;100.00;100087.75;4903025;29;20047;-83
2023/07/01 02:47:48;;;;;;;4.32;3.40;;;;;;;11.64;100.00;100090.28;4889135;29;20041;-83
2023/07/01 02:50:14;;;;;;;7.22;3.80;;;;;;;11.62;100.00;100091.28;4910725;29;20074;-83
2023/07/01 02:52:41;;;;;;;7.22;3.70;;;;;;;11.67;100.00;100076.94;4895971;29;20040;-83
2023/07/01 02:55:08;;;;;;;3.70;3.30;;;;;;;11.68;100.00;100078.66;4901690;29;20044;-82
2023/07/01 02:57:35;;;;;;;4.85;3.72;;;;;;;11.72;100.00;100074.16;4893610;29;20407;-80
2023/07/01 03:00:02;;;;;;;4.13;3.17;;;;;;;11.78;100.00;100068.66;4924724;29;20076;-80
2023/07/01 03:02:29;;;;;;;6.50;3.70;;;;;;;11.78;100.00;100060.72;4897408;29;20067;-81
2023/07/01 03:04:56;;;;;;;4.97;3.55;;;;;;;11.81;100.00;100064.16;4906665;29;20123;-84
2023/07/01 03:07:23;;;;;;;4.97;3.70;;;;;;;11.81;100.00;100063.28;4911799;29;20420;-84
2023/07/01 03:09:49;;;;;;;3.75;3.13;;;;;;;11.86;100.00;100058.69;4876945;29;20131;-83
2023/07/01 03:12:16;;;;;;;5.80;3.35;;;;;;;11.84;100.00;100052.56;4909880;29;20048;-83
2023/07/01 03:14:44;;;;;;;4.30;3.10;;;;;;;11.87;100.00;100056.91;4896276;29;20041;-83
2023/07/01 03:17:11;;;;;;;3.72;3.30;;;;;;;11.90;100.00;100056.81;4910227;29;20049;-81
2023/07/01 03:19:41;;;;;;;5.70;3.50;;;;;;;11.94;100.00;100063.69;4901257;29;20052;-82
2023/07/01 03:22:08;;;;;;;6.32;3.60;;;;;;;11.95;100.00;100060.16;4917256;29;20052;-83
2023/07/01 03:24:35;;;;;;;4.25;3.75;;;;;;;11.95;100.00;100057.50;4919493;29;20051;-84
2023/07/01 03:27:03;;;;;;;5.22;3.78;;;;;;;12.00;100.00;100052.91;4894747;29;20040;-83
2023/07/01 03:29:29;;;;;;;5.13;3.60;;;;;;;12.06;100.00;100052.69;4900960;29;20078;-83
2023/07/01 03:31:56;;;;;;;4.75;3.83;;;;;;;12.10;100.00;100051.63;4898413;29;20158;-84
2023/07/01 03:34:24;;;;;;;3.95;3.40;;;;;;;12.15;100.00;100055.00;4901551;29;20044;-82
2023/07/01 03:36:51;;;;;;;5.68;3.90;;;;;;;12.21;100.00;100046.84;4901780;29;20381;-83
2023/07/01 03:39:18;;;;;;;6.18;3.70;;;;;;;12.25;100.00;100039.63;4899076;29;20496;-82
2023/07/01 03:41:45;;;;;;;3.80;3.40;;;;;;;12.29;100.00;100044.75;4897810;29;20046;-83
2023/07/01 03:44:12;;;;;;;5.45;3.28;;;;;;;12.33;100.00;100042.84;4914903;29;20107;-83
2023/07/01 03:46:38;;;;;;;4.30;3.85;;;;;;;12.38;100.00;100046.22;4898422;29;20072;-81
2023/07/01 03:49:06;;;;;;;4.10;3.17;;;;;;;12.42;100.00;100042.50;4923069;29;20052;-83
2023/07/01 03:51:33;;;;;;;5.00;4.00;;;;;;;12.47;100.00;100042.34;4902786;29;20045;-81
2023/07/01 03:53:59;;;;;;;4.90;4.10;;;;;;;12.51;100.00;100038.63;4891265;29;20036;-85
2023/07/01 03:56:26;;;;;;;5.85;4.35;;;;;;;12.49;100.00;100041.34;4908138;29;20064;-84
2023/07/01 03:58:53;;;;;;;7.13;5.05;;;;;;;12.53;100.00;100036.81;4911309;29;20099;-82
2023/07/01 04:01:22;;;;;;;6.15;4.60;;;;;;;12.57;100.00;100030.47;4894485;29;20538;-82
2023/07/01 04:03:53;;;;;;;5.85;3.90;;;;;;;12.59;100.00;100034.78;4913680;29;20044;-85
2023/07/01 04:06:20;;;;;;;5.10;3.58;;;;;;;12.64;100.00;100030.16;4908789;29;20036;-83
2023/07/01 04:08:54;;;;;;;5.20;3.60;;;;;;;12.72;100.00;100031.66;4882903;29;20052;-81
2023/07/01 04:11:21;;;;;;;5.43;3.67;;;;;;;12.79;100.00;100030.50;4904585;29;20159;-84
2023/07/01 04:13:48;;;;;;;4.90;3.63;;;;;;;12.80;100.00;100027.78;4913800;29;20044;-84
2023/07/01 04:16:15;;;;;;;5.25;3.85;;;;;;;12.86;100.00;100035.50;4898306;29;20464;-83
2023/07/01 04:18:43;;;;;;;5.32;3.67;;;;;;;12.91;100.00;100035.31;4917820;29;20092;-82
2023/07/01 04:21:10;;;;;;;4.40;4.00;;;;;;;12.98;100.00;100030.63;4930074;29;20044;-85
2023/07/01 04:23:38;;;;;;;3.95;3.55;;;;;;;13.01;100.00;100026.03;4897873;29;20056;-83
2023/07/01 04:26:05;;;;;;;6.82;3.65;;;;;;;13.05;100.00;100025.00;4897155;29;20040;-83
2023/07/01 04:28:32;;;;;;;4.50;3.88;;;;;;;13.10;100.00;100024.81;4912493;29;20154;-85
2023/07/01 04:30:58;;;;;;;4.20;3.70;;;;;;;13.12;100.00;100020.34;4896792;29;20048;-81
2023/07/01 04:33:25;;;;;;;4.00;3.30;;;;;;;13.14;100.00;100021.97;4895479;29;20051;-80
2023/07/01 04:35:52;;;;;;;3.88;3.45;;;;;;;13.18;100.00;100022.72;4878525;29;20040;-84
2023/07/01 04:38:22;;;;;;;6.80;3.50;;;;;;;13.24;100.00;100017.19;4895873;29;20040;-82
2023/07/01 04:40:48;;;;;;;6.53;3.70;;;;;;;13.27;100.00;100017.06;4909766;29;21513;-81
2023/07/01 04:43:19;;;;;;;5.32;4.57;;;;;;;13.32;100.00;100012.44;4907395;29;20564;-81
2023/07/01 04:45:45;;;;;;;5.88;3.67;;;;;;;13.41;100.00;100009.38;4907832;29;20416;-80
2023/07/01 04:48:12;;;;;;;3.95;3.45;;;;;;;13.50;100.00;100019.59;4927929;29;20076;-82
2023/07/01 04:50:39;;;;;;;4.65;3.75;;;;;;;13.62;100.00;100009.38;4894631;29;20067;-82
2023/07/01 04:53:06;;;;;;;4.50;3.22;;;;;;;13.79;100.00;100012.19;4900369;29;20419;-81
2023/07/01 04:55:33;;;;;;;4.07;3.67;;;;;;;13.95;100.00;100005.25;4902967;29;20036;-82
2023/07/01 04:58:00;;;;;;;5.95;4.47;;;;;;;14.10;100.00;100006.34;4888423;29;20036;-82
2023/07/01 05:00:27;;;;;;;5.25;4.22;;;;;;;14.24;100.00;100003.06;4883584;29;20048;-81
2023/07/01 05:02:54;;;;;;;4.03;3.60;;;;;;;14.38;100.00;100003.31;4915922;29;20075;-83
2023/07/01 05:05:21;;;;;;;4.95;3.53;;;;;;;14.46;100.00;100008.28;4925784;29;20047;-83
2023/07/01 05:07:48;;;;;;;5.65;3.50;;;;;;;14.57;100.00;100012.16;4920648;29;20393;-83
2023/07/01 05:10:15;;;;;;;5.85;4.20;;;;;;;14.72;100.00;100004.41;4904468;29;20052;-83
2023/07/01 05:12:42;;;;;;;4.53;3.85;;;;;;;14.91;100.00;100000.78;4921366;29;20040;-82
2023/07/01 05:15:09;;;;;;;7.55;4.93;;;;;;;15.19;100.00;100005.59;4890525;29;20160;-85
2023/07/01 05:17:37;;;;;;;5.38;4.72;;;;;;;15.41;100.00;100009.84;4910886;29;20075;-82
2023/07/01 05:20:05;;;;;;;7.35;5.97;;;;;;;15.54;100.00;100000.28;4916902;29;20107;-81
2023/07/01 05:22:31;;;;;;;10.55;7.50;;;;;;;15.58;100.00;100001.84;4915096;29;20107;-83
2023/07/01 05:25:00;;;;;;;8.23;6.15;;;;;;;15.56;100.00;99995.75;4918159;29;20711;-83
2023/07/01 05:27:27;;;;;;;11.23;8.05;;;;;;;15.64;100.00;100000.72;4882057;29;20040;-84
2023/07/01 05:29:54;;;;;;;10.40;7.45;;;;;;;15.64;100.00;99993.59;4901439;29;20099;-83
2023/07/01 05:32:21;;;;;;;11.50;7.82;;;;;;;15.64;100.00;99995.41;4896099;29;20047;-82
2023/07/01 05:34:48;;;;;;;12.07;8.20;;;;;;;15.71;100.00;100000.28;4902265;29;20048;-81
2023/07/01 05:37:15;;;;;;;8.65;6.88;;;;;;;15.84;100.00;99999.66;4893020;29;20039;-82
2023/07/01 05:39:42;;;;;;;10.43;7.78;;;;;;;16.16;100.00;99995.28;4912754;29;20453;-81
2023/07/01 05:42:09;;;;;;;9.40;7.72;;;;;;;16.57;100.00;99985.88;4894527;29;20579;-83
2023/07/01 05:44:35;;;;;;;11.30;7.40;;;;;;;17.14;100.00;99983.50;4910299;29;20127;-82
2023/07/01 05:47:02;;;;;;;9.23;6.43;;;;;;;18.28;100.00;99991.75;4895602;29;20707;-81
2023/07/01 05:49:29;;;;;;;13.10;6.55;;;;;;;20.12;100.00;99982.22;4905987;29;20047;-81
2023/07/01 05:51:56;;;;;;;6.82;5.28;;;;;;;21.67;100.00;99982.41;4871646;29;20036;-83
2023/07/01 05:54:23;;;;;;;6.43;5.28;;;;;;;23.28;85.38;99977.41;4905821;29;20060;-81
2023/07/01 05:56:49;;;;;;;5.88;5.28;;;;;;;24.62;72.01;99975.69;4907856;29;20047;-82
2023/07/01 05:59:16;;;;;;;6.55;5.90;;;;;;;25.34;63.95;99979.94;4909168;29;20111;-83
2023/07/01 06:01:43;;;;;;;5.50;4.47;;;;;;;26.14;62.04;99978.69;4892906;29;20476;-80
2023/07/01 06:04:10;;;;;;;5.63;5.13;;;;;;;26.12;60.84;99977.16;4905237;29;20143;-83
2023/07/01 06:06:38;;;;;;;5.68;4.90;;;;;;;26.01;60.81;99970.91;4909985;29;20060;-84
2023/07/01 06:09:08;;;;;;;5.65;4.90;;;;;;;25.42;58.85;99969.28;4929145;29;20487;-82
2023/07/01 06:11:34;;;;;;;5.78;4.65;;;;;;;25.03;61.62;99963.00;4913984;29;20530;-80
2023/07/01 06:14:01;;;;;;;5.75;4.55;;;;;;;24.75;63.40;99966.50;4897110;29;20427;-83
2023/07/01 06:16:29;;;;;;;7.15;5.03;;;;;;;24.08;63.74;99968.78;4897941;29;20072;-82
2023/07/01 06:18:56;;;;;;;6.72;5.03;;;;;;;23.80;67.97;99972.19;4908802;29;20040;-85
2023/07/01 06:21:23;;;;;;;5.72;4.78;;;;;;;23.39;68.41;99964.91;4892593;29;20048;-81
2023/07/01 06:23:53;;;;;;;5.43;4.90;;;;;;;23.07;71.26;99973.84;4925980;29;20064;-84
2023/07/01 06:26:20;;;;;;;5.50;5.00;;;;;;;22.83;72.04;99968.63;4890786;29;20044;-85
2023/07/01 06:28:47;;;;;;;7.97;5.05;;;;;;;22.54;70.96;99964.78;4893234;29;20717;-84
2023/07/01 06:31:13;;;;;;;5.22;4.78;;;;;;;22.35;72.23;99960.84;4926872;29;20174;-80
2023/07/01 06:33:40;;;;;;;7.13;4.75;;;;;;;22.29;76.46;99966.75;4907027;29;20048;-83
2023/07/01 06:36:09;;;;;;;7.07;5.85;;;;;;;22.00;76.58;99971.72;4909372;29;20036;-81
2023/07/01 06:38:36;;;;;;;6.32;5.50;;;;;;;22.03;81.68;99962.53;4912262;29;20166;-84
2023/07/01 06:41:03;;;;;;;7.00;5.40;;;;;;;21.99;79.87;99958.38;4879457;29;20139;-85
2023/07/01 06:43:29;;;;;;;6.65;5.15;;;;;;;21.90;78.40;99959.97;4911428;29;20040;-80
2023/07/01 06:45:56;;;;;;;5.97;5.38;;;;;;;21.85;82.27;99957.63;4912163;29;20047;-85
2023/07/01 06:48:23;;;;;;;6.75;5.78;;;;;;;21.76;77.12;99960.19;4892272;29;20046;-81
2023/07/01 06:50:50;;;;;;;7.32;5.45;;;;;;;21.48;80.85;99961.47;4908435;29;20040;-84
2023/07/01 06:53:17;;;;;;;7.25;4.90;;;;;;;21.41;81.05;99960.22;4926306;29;20162;-84
2023/07/01 06:55:44;;;;;;;5.85;5.13;;;;;;;21.43;81.89;99956.44;4892474;29;20554;-81
2023/07/01 06:58:10;;;;;;;7.93;5.22;;;;;;;21.71;84.17;99957.03;4888012;29;20071;-84
2023/07/01 07:00:37;;;;;;;6.28;4.82;;;;;;;21.88;79.80;99951.19;4927553;29;20436;-81
2023/07/01 07:03:04;;;;;;;6.30;4.72;;;;;;;22.04;78.74;99948.13;4895793;29;20070;-81
2023/07/01 07:05:34;;;;;;;5.72;4.90;;;;;;;22.19;79.27;99947.78;4911677;29;20044;-84
2023/07/01 07:08:01;;;;;;;5.57;5.07;;;;;;;22.21;74.44;99946.81;4881927;29;20040;-83
2023/07/01 07:10:28;;;;;;;6.22;5.53;;;;;;;22.09;74.78;99952.19;4908801;29;20461;-82
2023/07/01 07:12:55;;;;;;;5.65;4.82;;;;;;;22.01;74.37;99941.16;4912051;29;20040;-85
2023/07/01 07:15:22;;;;;;;6.13;5.53;;;;;;;22.03;70.45;99947.28;4895553;29;20051;-82
2023/07/01 07:17:48;;;;;;;6.18;4.57;;;;;;;22.18;74.02;99947.91;4905818;29;20063;-82
2023/07/01 07:20:15;;;;;;;6.25;5.07;;;;;;;22.34;76.01;99940.31;4897032;29;20040;-85
2023/07/01 07:22:42;;;;;;;8.05;4.68;;;;;;;22.41;71.66;99941.53;4895408;29;20052;-79
2023/07/01 07:25:16;;;;;;;5.07;4.57;;;;;;;22.48;70.54;99937.38;4897181;29;20142;-83
2023/07/01 07:27:44;;;;;;;5.65;4.93;;;;;;;22.63;73.01;99937.09;4905836;29;20067;-82
2023/07/01 07:30:12;;;;;;;5.57;4.70;;;;;;;22.72;73.35;99931.81;4906397;29;20111;-83
2023/07/01 07:32:39;;;;;;;4.88;3.85;;;;;;;22.75;70.05;99928.00;4915280;29;20099;-83
2023/07/01 07:35:07;;;;;;;4.85;4.13;;;;;;;22.66;65.67;99924.22;4916244;29;20131;-80
2023/07/01 07:37:35;;;;;;;7.00;5.07;;;;;;;22.77;66.05;99928.72;4899949;29;20044;-84
2023/07/01 07:40:05;;;;;;;4.82;4.05;;;;;;;23.05;70.29;99929.16;4925776;29;20557;-80
2023/07/01 07:42:32;;;;;;;5.97;3.78;;;;;;;23.06;66.64;99933.56;4912711;29;20049;-84
2023/07/01 07:44:59;;;;;;;5.68;3.63;;;;;;;23.22;66.81;99926.75;4917026;29;20504;-78
2023/07/01 07:47:27;;;;;;;4.53;3.83;;;;;;;23.31;64.82;99920.59;4897482;29;20412;-81
2023/07/01 07:49:54;;;;;;;5.38;3.30;;;;;;;23.38;62.28;99918.22;4886609;29;20043;-78
2023/07/01 07:52:20;;;;;;;4.78;3.58;;;;;;;23.32;62.42;99921.44;4916140;29;20044;-82
2023/07/01 07:54:47;;;;;;;4.70;3.45;;;;;;;23.54;62.76;99918.63;4914278;29;20044;-81
2023/07/01 07:57:14;;;;;;;6.78;3.80;;;;;;;23.35;59.71;99921.16;4914142;29;20048;-82
2023/07/01 07:59:42;;;;;;;4.95;3.45;;;;;;;23.56;62.67;99903.16;4914509;29;20048;-82
2023/07/01 08:02:09;;;;;;;4.95;3.70;;;;;;;23.79;62.71;99911.94;4914597;29;20044;-76
2023/07/01 08:04:36;;;;;;;4.55;3.42;;;;;;;23.97;60.22;99906.81;4921111;29;20036;-78
2023/07/01 08:07:04;;;;;;;5.97;3.42;;;;;;;24.02;59.99;99903.69;4916828;29;20040;-81
2023/07/01 08:09:31;;;;;;;4.57;3.28;;;;;;;23.99;56.26;99899.44;4914463;29;20036;-84
2023/07/01 08:12:01;;;;;;;3.55;2.50;;;;;;;24.21;56.48;99897.50;4917248;29;20127;-79
2023/07/01 08:14:28;;;;;;;4.45;3.40;;;;;;;24.33;56.47;99897.31;4919704;29;20047;-79
2023/07/01 08:16:55;;;;;;;3.85;2.67;;;;;;;24.40;54.54;99895.78;4903920;29;20032;-79
2023/07/01 08:19:22;;;;;;;3.20;2.60;;;;;;;24.30;53.56;99892.16;4892338;29;20500;-80
2023/07/01 08:21:49;;;;;;;3.25;2.35;;;;;;;24.41;51.61;99883.13;4919576;29;20104;-80
2023/07/01 08:24:16;;;;;;;4.00;2.50;;;;;;;24.35;51.50;99878.28;4919307;29;20048;-78
2023/07/01 08:26:43;;;;;;;4.28;2.55;;;;;;;24.28;54.19;99883.31;4933757;29;20076;-83
2023/07/01 08:29:13;;;;;;;4.03;2.60;;;;;;;24.42;55.24;99882.97;4916498;29;20032;-81
2023/07/01 08:31:40;;;;;;;3.33;3.00;;;;;;;24.47;49.61;99870.88;4888074;29;20040;-81
2023/07/01 08:34:07;;;;;;;2.92;2.47;;;;;;;24.49;48.84;99868.94;4899000;29;20055;-80
2023/07/01 08:36:34;;;;;;;4.00;2.88;;;;;;;23.96;47.75;99867.31;4920445;29;20055;-78
2023/07/01 08:39:02;;;;;;;4.43;2.97;;;;;;;23.79;50.94;99868.78;4914160;29;20427;-80
2023/07/01 08:41:31;;;;;;;2.95;2.45;;;;;;;23.81;51.83;99874.09;4928348;29;20055;-79
2023/07/01 08:43:58;;;;;;;3.80;3.28;;;;;;;23.88;49.52;99856.38;4928827;29;20558;-81
2023/07/01 08:46:28;;;;;;;4.07;2.70;;;;;;;23.93;48.69;99851.41;4918111;29;20064;-79
2023/07/01 08:48:57;;;;;;;4.28;2.70;;;;;;;24.33;49.52;99859.50;4898804;29;20749;-79
2023/07/01 08:51:31;;;;;;;3.00;2.67;;;;;;;24.51;43.62;99848.03;4928598;29;20068;-80
2023/07/01 08:54:00;;;;;;;3.05;2.42;;;;;;;24.74;44.16;99844.06;4918382;29;20044;-79
2023/07/01 08:56:29;;;;;;;3.38;2.72;;;;;;;24.67;43.89;99845.63;4922651;29;20492;-79
2023/07/01 08:58:56;;;;;;;3.92;2.75;;;;;;;24.59;44.69;99835.53;4890539;29;20044;-79
2023/07/01 09:01:23;;;;;;;5.03;2.88;;;;;;;24.45;44.25;99835.94;4904404;29;20036;-79
2023/07/01 09:03:51;;;;;;;4.45;2.83;;;;;;;24.65;46.74;99834.13;4936259;29;20123;-80
2023/07/01 09:06:20;;;;;;;4.72;2.60;;;;;;;24.74;46.03;99829.72;4899932;29;20039;-80
2023/07/01 09:08:47;;;;;;;4.72;2.60;;;;;;;24.95;44.00;99819.59;4935176;29;20048;-83
2023/07/01 09:11:15;;;;;;;3.42;2.70;;;;;;;25.01;43.57;99832.53;4906893;29;20052;-82
2023/07/01 09:13:43;;;;;;;3.60;3.08;;;;;;;24.92;45.00;99830.69;4901808;29;20047;-82
2023/07/01 09:16:10;;;;;;;4.35;2.75;;;;;;;24.94;43.96;99821.44;4923597;29;20079;-80
2023/07/01 09:18:42;;;;;;;4.95;2.65;;;;;;;25.20;45.90;99820.88;4908097;29;20092;-79
2023/07/01 09:21:19;;;;;;;2.70;2.50;;;;;;;25.42;45.21;99819.69;4920065;29;20054;-80
2023/07/01 09:23:51;;;;;;;3.03;2.25;;;;;;;25.45;44.98;99820.25;4905478;29;20143;-82
2023/07/01 09:26:19;;;;;;;3.85;2.50;;;;;;;25.49;42.68;99832.47;4939016;29;20126;-81
2023/07/01 09:28:49;;;;;;;3.47;2.80;;;;;;;25.25;41.05;99819.44;4936531;29;20044;-81
2023/07/01 09:31:17;;;;;;;4.50;2.88;;;;;;;25.40;42.68;99808.19;4921153;29;20036;-81
2023/07/01 09:33:58;;;;;;;3.60;2.65;;;;;;;25.29;42.75;99811.03;4904411;29;20127;-82
2023/07/01 09:36:31;;;;;;;8.00;3.03;;;;;;;25.10;41.13;99807.38;4922303;29;20036;-83
2023/07/01 09:39:05;;;;;;;3.65;2.28;;;;;;;25.26;46.78;99804.94;4935929;29;20051;-81
2023/07/01 09:41:32;;;;;;;3.53;2.67;;;;;;;25.20;41.57;99804.66;4898897;29;20050;-80
2023/07/01 09:44:01;;;;;;;7.07;2.28;;;;;;;25.17;43.76;99797.69;4920594;29;20050;-81
2023/07/01 09:46:42;;;;;;;5.57;2.70;;;;;;;24.94;42.54;99794.44;4925811;29;20169;-82
2023/07/01 09:49:11;;;;;;;2.40;2.20;;;;;;;24.87;44.79;99789.75;4902650;29;20427;-81
2023/07/01 09:51:47;;;;;;;3.00;2.70;;;;;;;24.63;41.78;99791.03;4902176;29;20048;-83
2023/07/01 09:54:27;;;;;;;3.13;2.78;;;;;;;24.82;43.11;99779.38;4920326;29;20044;-81
2023/07/01 09:56:56;;;;;;;5.32;3.05;;;;;;;24.98;42.84;99779.66;4887896;29;20040;-81
2023/07/01 09:59:25;;;;;;;8.10;2.83;;;;;;;25.10;43.66;99777.66;4898502;29;20044;-81
2023/07/01 10:01:55;;;;;;;4.38;2.92;;;;;;;24.99;43.28;99770.53;4901308;29;20055;-80
2023/07/01 10:04:28;;;;;;;2.63;2.38;;;;;;;25.22;43.91;99772.91;4927958;29;20051;-81
2023/07/01 10:06:57;;;;;;;;;;;;;;;25.26;44.51;99769.78;4896324;29;20041;-80
2023/07/01 10:09:26;;;;;;;3.45;2.40;;;;;;;25.32;46.18;99764.78;4900308;29;19934;-80
2023/07/01 10:11:58;;;;;;;3.58;2.83;;;;;;;25.07;43.36;99767.16;4915788;29;20040;-83
2023/07/01 10:14:27;;;;;;;2.60;2.38;;;;;;;25.27;44.30;99757.97;4902984;29;20083;-83
2023/07/01 10:16:57;;;;;;;4.18;2.90;;;;;;;25.35;43.20;99753.69;4931037;29;20048;-82
2023/07/01 10:19:29;;;;;;;2.95;2.72;;;;;;;25.58;42.31;99756.88;4895156;29;20051;-82
2023/07/01 10:22:19;;;;;;;4.20;2.97;;;;;;;25.81;43.60;99758.19;4934308;29;20086;-81
2023/07/01 10:24:53;;;;;;;5.75;3.00;;;;;;;25.71;41.96;99741.16;4919445;29;20047;-81
2023/07/01 10:27:46;;;;;;;2.50;2.30;;;;;;;25.60;41.52;99741.34;4907435;29;20119;-83
2023/07/01 10:30:13;;;;;;;2.60;2.40;;;;;;;25.87;40.12;99738.63;4914146;29;20178;-81
2023/07/01 10:32:41;;;;;;;3.30;2.45;;;;;;;26.07;39.33;99723.16;4919812;29;20048;-81
2023/07/01 10:35:10;;;;;;;5.47;2.30;;;;;;;26.35;40.40;99726.63;4905295;29;20052;-82
2023/07/01 10:37:37;;;;;;;2.53;2.33;;;;;;;26.56;41.45;99720.91;4906004;29;20073;-81
2023/07/01 10:40:30;;;;;;;5.72;3.08;;;;;;;26.38;40.74;99705.53;4932499;29;20044;-81
2023/07/01 10:43:18;;;;;;;4.05;2.53;;;;;;;26.14;41.38;99713.38;4916883;29;20073;-81
2023/07/01 10:45:45;;;;;;;5.90;2.75;;;;;;;26.06;41.45;99713.28;4932331;29;20048;-81
2023/07/01 10:48:13;;;;;;;4.72;2.80;;;;;;;25.68;39.79;99717.94;4918808;29;20052;-81
2023/07/01 10:51:03;;;;;;;160.15;107.28;;;;;;;25.65;41.14;99712.84;4935705;29;20048;-80
2023/07/01 10:53:31;;;;;;;4.55;3.47;;;;;;;25.64;41.28;99711.09;4900848;29;20040;-80
2023/07/01 10:56:13;;;;;;;5.60;3.03;;;;;;;25.55;41.43;99714.72;4901246;29;20072;-81
2023/07/01 10:58:40;;;;;;;3.53;3.00;;;;;;;25.41;42.72;99697.16;4897599;29;20041;-84
2023/07/01 11:01:07;;;;;;;2.63;2.38;;;;;;;25.37;41.55;99697.59;4902898;29;20068;-81
2023/07/01 11:03:34;;;;;;;4.15;2.72;;;;;;;25.37;42.38;99693.03;4899393;29;20040;-83
2023/07/01 11:06:03;;;;;;;5.40;2.70;;;;;;;25.45;44.06;99695.84;4905915;29;20039;-83
2023/07/01 11:08:33;;;;;;;2.85;2.53;;;;;;;25.60;43.53;99692.63;4909685;29;20083;-84
2023/07/01 11:11:03;;;;;;;4.28;2.55;;;;;;;25.66;42.04;99682.06;4912549;29;20051;-83
2023/07/01 11:13:30;;;;;;;4.93;2.50;;;;;;;25.66;42.78;99686.63;4925753;29;20046;-84
2023/07/01 11:16:09;;;;;;;3.83;2.38;;;;;;;25.38;41.36;99678.50;4941810;28;20051;-82
2023/07/01 11:18:44;;;;;;;4.50;2.67;;;;;;;25.06;42.29;99680.81;4908261;29;20075;-83
2023/07/01 11:21:13;;;;;;;3.47;2.30;;;;;;;25.08;43.36;99682.34;4913024;29;20041;-81
2023/07/01 11:23:42;;;;;;;3.13;2.65;;;;;;;25.08;42.93;99676.09;4926853;29;20044;-83
2023/07/01 11:26:09;;;;;;;4.35;2.90;;;;;;;25.06;42.97;99665.44;4926805;29;20054;-82
2023/07/01 11:28:37;;;;;;;2.75;2.45;;;;;;;24.93;42.23;99663.03;4894885;29;20060;-80
2023/07/01 11:31:21;;;;;;;4.63;2.80;;;;;;;25.01;42.23;99656.88;4929523;29;20044;-83